Time;durP1;ratioP1;P1;durP2;ratioP2;P2;SDS_P1;SDS_P2;PMS_P1;PMS_P2;Temp;Humidity;BMP_temperature;BMP_pressure;BME280_temperature;BME280_humidity;BME280_pressure;Samples;Min_cycle;Max_cycle;Signal;HPM_P1;HPM_P2
2022/06/19 00:00:14;;;;;;;10.23;6.57;;;;;;;;;;4977317;28;20187;-56
2022/06/19 00:02:40;;;;;;;8.02;6.20;;;;;;;;;;4981079;28;20733;-57
2022/06/19 00:05:06;;;;;;;9.15;5.70;;;;;;;;;;4971888;28;20188;-56
2022/06/19 00:07:32;;;;;;;10.52;6.50;;;;;;;;;;4989236;28;20224;-56
2022/06/19 00:09:59;;;;;;;12.23;6.13;;;;;;;;;;4972988;28;20190;-56
2022/06/19 00:12:25;;;;;;;8.20;6.10;;;;;;;;;;4976452;28;20182;-57
2022/06/19 00:14:51;;;;;;;6.93;6.10;;;;;;;;;;4979663;28;20185;-56
2022/06/19 00:17:17;;;;;;;12.02;6.28;;;;;;;;;;4983438;28;20178;-56
2022/06/19 00:19:43;;;;;;;13.45;6.25;;;;;;;;;;4979284;28;20662;-56
2022/06/19 00:22:09;;;;;;;8.68;5.82;;;;;;;;;;4982938;28;20235;-56
2022/06/19 00:24:35;;;;;;;8.13;6.05;;;;;;;;;;4978779;28;20186;-57
2022/06/19 00:27:01;;;;;;;9.00;6.20;;;;;;;;;;4976219;28;20660;-56
2022/06/19 00:29:28;;;;;;;10.75;6.63;;;;;;;;;;4984847;28;20220;-56
2022/06/19 00:31:54;;;;;;;9.90;5.75;;;;;;;;;;4979483;28;20250;-56
2022/06/19 00:34:20;;;;;;;9.27;5.95;;;;;;;;;;4981116;28;20547;-56
2022/06/19 00:36:49;;;;;;;12.68;6.05;;;;;;;;;;4988580;28;20193;-56
2022/06/19 00:39:15;;;;;;;10.98;6.18;;;;;;;;;;4988893;28;20190;-56
2022/06/19 00:41:41;;;;;;;11.13;6.32;;;;;;;;;;4984474;28;20198;-56
2022/06/19 00:44:09;;;;;;;8.27;6.43;;;;;;;;;;4990414;28;20248;-56
2022/06/19 00:46:44;;;;;;;8.27;6.33;;;;;;;;;;4970482;28;20195;-56
2022/06/19 00:49:11;;;;;;;12.77;6.50;;;;;;;;;;4976010;28;20184;-56
2022/06/19 00:51:37;;;;;;;11.50;6.22;;;;;;;;;;4991118;28;20236;-56
2022/06/19 00:54:03;;;;;;;9.77;6.10;;;;;;;;;;4987973;28;20189;-57
2022/06/19 00:56:30;;;;;;;12.70;7.40;;;;;;;;;;4980002;28;20182;-57
2022/06/19 00:58:56;;;;;;;8.02;6.32;;;;;;;;;;4982905;28;20208;-55
2022/06/19 01:01:22;;;;;;;11.07;6.03;;;;;;;;;;4979726;28;20579;-55
2022/06/19 01:03:54;;;;;;;7.60;6.30;;;;;;;;;;4988659;28;20201;-55
2022/06/19 01:06:20;;;;;;;7.73;6.30;;;;;;;;;;4976331;28;20194;-55
2022/06/19 01:08:47;;;;;;;7.87;6.37;;;;;;;;;;4980609;28;20209;-54
2022/06/19 01:11:13;;;;;;;9.45;6.38;;;;;;;;;;4979711;28;20699;-57
2022/06/19 01:13:39;;;;;;;9.13;6.68;;;;;;;;;;4985987;28;20697;-57
2022/06/19 01:16:05;;;;;;;9.33;6.27;;;;;;;;;;4981713;28;20201;-56
2022/06/19 01:18:32;;;;;;;10.47;6.07;;;;;;;;;;4980664;28;20648;-57
2022/06/19 01:21:01;;;;;;;9.07;6.47;;;;;;;;;;4979927;28;20194;-55
2022/06/19 01:23:45;;;;;;;10.37;7.00;;;;;;;;;;4973085;28;20666;-57
2022/06/19 01:26:11;;;;;;;10.05;6.53;;;;;;;;;;4978452;28;20185;-55
2022/06/19 01:28:46;;;;;;;7.93;6.33;;;;;;;;;;4981583;28;20267;-55
2022/06/19 01:31:15;;;;;;;11.27;6.63;;;;;;;;;;4982145;28;20217;-55
2022/06/19 01:33:51;;;;;;;9.27;6.07;;;;;;;;;;4984244;28;20189;-56
2022/06/19 01:36:18;;;;;;;11.37;6.33;;;;;;;;;;4989744;28;20255;-56
2022/06/19 01:38:46;;;;;;;7.50;6.23;;;;;;;;;;4989620;28;20619;-55
2022/06/19 01:41:13;;;;;;;8.50;6.23;;;;;;;;;;4986839;28;20360;-56
2022/06/19 01:43:39;;;;;;;7.47;6.60;;;;;;;;;;4981293;28;20681;-56
2022/06/19 01:46:05;;;;;;;8.60;6.70;;;;;;;;;;4977014;28;20186;-55
2022/06/19 01:48:31;;;;;;;10.33;6.27;;;;;;;;;;4983814;28;20686;-56
2022/06/19 01:50:57;;;;;;;11.23;6.57;;;;;;;;;;4981632;28;20676;-56
2022/06/19 01:53:27;;;;;;;7.33;6.13;;;;;;;;;;4983710;28;20194;-56
2022/06/19 01:55:53;;;;;;;8.53;6.67;;;;;;;;;;4985461;28;20562;-56
2022/06/19 01:58:20;;;;;;;9.87;6.20;;;;;;;;;;4981280;28;20225;-56
2022/06/19 02:00:48;;;;;;;9.27;6.63;;;;;;;;;;4982968;28;20189;-56
2022/06/19 02:03:19;;;;;;;11.23;6.97;;;;;;;;;;4977621;28;20199;-56
2022/06/19 02:05:45;;;;;;;10.33;6.50;;;;;;;;;;4974340;28;20191;-55
2022/06/19 02:08:12;;;;;;;8.97;6.90;;;;;;;;;;4973425;28;20202;-55
2022/06/19 02:10:40;;;;;;;10.20;6.50;;;;;;;;;;4986632;28;20226;-56
2022/06/19 02:13:06;;;;;;;9.87;6.53;;;;;;;;;;4976299;28;20303;-56
2022/06/19 02:15:32;;;;;;;7.57;6.70;;;;;;;;;;4974796;28;20221;-55
2022/06/19 02:17:58;;;;;;;7.63;6.83;;;;;;;;;;4984257;28;20416;-56
2022/06/19 02:20:24;;;;;;;7.37;6.63;;;;;;;;;;4965040;28;20200;-55
2022/06/19 02:22:50;;;;;;;11.13;7.53;;;;;;;;;;4976433;28;20241;-56
2022/06/19 02:25:16;;;;;;;9.07;7.17;;;;;;;;;;4982442;28;20232;-56
2022/06/19 02:27:42;;;;;;;8.57;6.70;;;;;;;;;;4985979;28;20217;-56
2022/06/19 02:30:08;;;;;;;12.23;7.27;;;;;;;;;;4979051;28;20201;-55
2022/06/19 02:32:35;;;;;;;12.27;6.70;;;;;;;;;;4976398;28;20736;-56
2022/06/19 02:35:01;;;;;;;12.10;6.93;;;;;;;;;;4982410;28;20195;-56
2022/06/19 02:37:27;;;;;;;12.23;7.23;;;;;;;;;;4986105;28;20194;-56
2022/06/19 02:40:05;;;;;;;10.77;7.37;;;;;;;;;;4981028;28;20190;-55
2022/06/19 02:42:35;;;;;;;12.13;8.03;;;;;;;;;;4991586;28;20177;-56
2022/06/19 02:45:03;;;;;;;10.27;6.70;;;;;;;;;;4981904;28;20198;-56
2022/06/19 02:47:30;;;;;;;13.03;6.57;;;;;;;;;;4979871;28;20229;-56
2022/06/19 02:49:56;;;;;;;8.83;5.63;;;;;;;;;;4981898;28;20182;-55
2022/06/19 02:52:22;;;;;;;8.77;5.37;;;;;;;;;;4985862;28;20197;-55
2022/06/19 02:54:48;;;;;;;8.17;4.53;;;;;;;;;;4983214;28;20532;-57
2022/06/19 02:57:14;;;;;;;4.90;4.33;;;;;;;;;;4969529;28;20200;-55
2022/06/19 02:59:40;;;;;;;7.17;3.67;;;;;;;;;;4980687;28;20189;-55
2022/06/19 03:02:06;;;;;;;6.70;3.87;;;;;;;;;;4982140;28;20194;-55
2022/06/19 03:04:56;;;;;;;5.73;3.33;;;;;;;;;;4981234;28;20786;-54
2022/06/19 03:07:22;;;;;;;6.87;3.07;;;;;;;;;;4980590;28;20586;-57
2022/06/19 03:09:48;;;;;;;5.93;3.10;;;;;;;;;;4978820;28;20281;-56
2022/06/19 03:12:14;;;;;;;6.17;2.80;;;;;;;;;;4977318;28;20220;-56
2022/06/19 03:14:40;;;;;;;4.43;2.93;;;;;;;;;;4972886;28;20702;-56
2022/06/19 03:17:06;;;;;;;7.13;2.60;;;;;;;;;;4976376;28;20201;-56
2022/06/19 03:19:32;;;;;;;4.00;2.50;;;;;;;;;;4978848;28;20264;-56
2022/06/19 03:21:58;;;;;;;4.67;2.73;;;;;;;;;;4975865;28;20234;-57
2022/06/19 03:24:26;;;;;;;4.43;2.53;;;;;;;;;;4974276;28;20186;-56
2022/06/19 03:26:52;;;;;;;4.07;2.53;;;;;;;;;;4985185;28;20183;-57
2022/06/19 03:29:18;;;;;;;3.00;2.17;;;;;;;;;;4983979;28;20828;-57
2022/06/19 03:31:44;;;;;;;8.10;2.40;;;;;;;;;;4977691;28;20264;-57
2022/06/19 03:34:10;;;;;;;5.67;2.20;;;;;;;;;;4978989;28;20216;-56
2022/06/19 03:36:36;;;;;;;6.07;2.47;;;;;;;;;;4985300;28;20878;-57
2022/06/19 03:39:02;;;;;;;4.20;2.23;;;;;;;;;;4983740;28;20185;-56
2022/06/19 03:41:28;;;;;;;4.30;2.20;;;;;;;;;;4985503;28;20272;-56
2022/06/19 03:43:54;;;;;;;5.30;2.50;;;;;;;;;;4980402;28;20186;-56
2022/06/19 03:46:20;;;;;;;4.67;2.20;;;;;;;;;;4983750;28;20222;-56
2022/06/19 03:48:47;;;;;;;6.60;2.23;;;;;;;;;;4981432;28;20199;-57
2022/06/19 03:51:15;;;;;;;5.47;2.60;;;;;;;;;;4985161;28;20209;-56
2022/06/19 03:53:41;;;;;;;5.53;2.10;;;;;;;;;;4986167;28;20189;-57
2022/06/19 03:56:07;;;;;;;4.90;2.30;;;;;;;;;;4984557;28;20182;-56
2022/06/19 03:58:47;;;;;;;9.30;2.23;;;;;;;;;;4981638;28;20197;-56
2022/06/19 04:01:17;;;;;;;5.10;2.10;;;;;;;;;;4978599;28;20198;-56
2022/06/19 04:03:43;;;;;;;5.13;2.00;;;;;;;;;;4985046;28;20190;-56
2022/06/19 04:06:12;;;;;;;4.60;2.30;;;;;;;;;;4974899;28;20758;-57
2022/06/19 04:08:38;;;;;;;5.80;2.27;;;;;;;;;;4987574;28;20193;-56
2022/06/19 04:11:05;;;;;;;8.60;2.40;;;;;;;;;;4984225;28;20276;-56
2022/06/19 04:13:32;;;;;;;5.17;2.20;;;;;;;;;;4985792;28;20198;-57
2022/06/19 04:15:58;;;;;;;5.40;2.47;;;;;;;;;;4983798;28;20715;-56
2022/06/19 04:18:25;;;;;;;9.30;2.87;;;;;;;;;;4987842;28;20179;-56
2022/06/19 04:20:51;;;;;;;7.60;2.40;;;;;;;;;;4985795;28;20202;-56
2022/06/19 04:23:17;;;;;;;6.40;2.50;;;;;;;;;;4984200;28;20730;-56
2022/06/19 04:25:43;;;;;;;7.27;2.43;;;;;;;;;;4973428;28;20715;-56
2022/06/19 04:28:09;;;;;;;7.00;3.07;;;;;;;;;;4985708;28;20760;-56
2022/06/19 04:30:36;;;;;;;8.10;2.10;;;;;;;;;;4978158;28;20308;-56
2022/06/19 04:33:02;;;;;;;5.00;2.40;;;;;;;;;;4974281;28;20186;-56
2022/06/19 04:35:28;;;;;;;4.27;1.80;;;;;;;;;;4973763;28;20353;-56
2022/06/19 04:37:54;;;;;;;5.17;2.40;;;;;;;;;;4988323;28;20194;-56
2022/06/19 04:40:20;;;;;;;7.10;2.43;;;;;;;;;;4983539;28;20209;-56
2022/06/19 04:42:46;;;;;;;4.87;2.10;;;;;;;;;;4987725;28;20195;-56
2022/06/19 04:45:12;;;;;;;7.00;2.20;;;;;;;;;;4978265;28;20237;-56
2022/06/19 04:47:38;;;;;;;4.83;2.10;;;;;;;;;;4978497;28;20193;-56
2022/06/19 04:50:04;;;;;;;8.03;2.20;;;;;;;;;;4984700;28;20796;-56
2022/06/19 04:52:30;;;;;;;8.37;2.40;;;;;;;;;;4982906;28;20197;-56
2022/06/19 04:54:56;;;;;;;7.87;2.80;;;;;;;;;;4980539;28;20664;-56
2022/06/19 04:57:22;;;;;;;8.63;2.33;;;;;;;;;;4986420;28;20620;-56
2022/06/19 04:59:48;;;;;;;5.47;2.30;;;;;;;;;;4988684;28;20926;-56
2022/06/19 05:02:14;;;;;;;7.87;2.60;;;;;;;;;;4980800;28;20197;-56
2022/06/19 05:04:40;;;;;;;5.67;2.07;;;;;;;;;;4979884;28;20217;-56
2022/06/19 05:07:07;;;;;;;7.83;2.77;;;;;;;;;;4981781;28;20234;-56
2022/06/19 05:09:33;;;;;;;8.07;1.97;;;;;;;;;;4985624;28;20190;-56
2022/06/19 05:11:59;;;;;;;9.00;2.77;;;;;;;;;;4988079;28;20220;-56
2022/06/19 05:14:25;;;;;;;9.17;2.20;;;;;;;;;;4975290;28;20186;-57
2022/06/19 05:16:51;;;;;;;9.70;3.00;;;;;;;;;;4975124;28;20272;-56
2022/06/19 05:19:17;;;;;;;11.80;2.80;;;;;;;;;;4977437;28;21942;-56
2022/06/19 05:21:44;;;;;;;6.70;2.63;;;;;;;;;;4983916;28;20240;-56
2022/06/19 05:24:10;;;;;;;6.13;2.33;;;;;;;;;;4989239;28;20202;-56
2022/06/19 05:26:36;;;;;;;4.27;2.17;;;;;;;;;;4978765;28;20190;-57
2022/06/19 05:29:03;;;;;;;7.90;2.53;;;;;;;;;;4989081;28;20217;-56
2022/06/19 05:31:29;;;;;;;7.33;2.67;;;;;;;;;;4982347;28;20684;-56
2022/06/19 05:33:55;;;;;;;5.73;2.60;;;;;;;;;;4984158;28;20269;-56
2022/06/19 05:36:21;;;;;;;10.10;2.97;;;;;;;;;;4986559;28;20318;-56
2022/06/19 05:38:47;;;;;;;8.60;2.93;;;;;;;;;;4987648;28;20245;-56
2022/06/19 05:41:13;;;;;;;12.07;3.10;;;;;;;;;;4982298;28;20185;-56
2022/06/19 05:43:39;;;;;;;6.20;2.77;;;;;;;;;;4975140;28;20201;-56
2022/06/19 05:46:06;;;;;;;6.07;2.40;;;;;;;;;;4974458;28;20284;-56
2022/06/19 05:48:33;;;;;;;8.73;2.50;;;;;;;;;;4980661;28;20205;-56
2022/06/19 05:51:02;;;;;;;9.43;2.43;;;;;;;;;;4984133;28;20252;-55
2022/06/19 05:53:28;;;;;;;7.20;2.80;;;;;;;;;;4980337;28;20173;-56
2022/06/19 05:55:54;;;;;;;8.20;2.70;;;;;;;;;;4983788;28;20197;-56
2022/06/19 05:58:20;;;;;;;7.07;2.57;;;;;;;;;;4972692;28;20195;-56
2022/06/19 06:00:46;;;;;;;6.83;2.63;;;;;;;;;;4977227;28;20652;-56
2022/06/19 06:03:16;;;;;;;6.93;2.40;;;;;;;;;;4981207;28;20196;-56
2022/06/19 06:05:42;;;;;;;10.70;2.77;;;;;;;;;;4973943;28;20194;-56
2022/06/19 06:08:08;;;;;;;11.00;2.90;;;;;;;;;;4984812;28;20665;-56
2022/06/19 06:10:34;;;;;;;9.33;2.70;;;;;;;;;;4982287;28;20683;-56
2022/06/19 06:13:00;;;;;;;9.33;2.60;;;;;;;;;;4982533;28;20186;-56
2022/06/19 06:15:26;;;;;;;7.43;2.83;;;;;;;;;;4984192;28;20182;-56
2022/06/19 06:17:52;;;;;;;6.87;2.57;;;;;;;;;;4986172;28;20529;-56
2022/06/19 06:20:18;;;;;;;8.20;2.70;;;;;;;;;;4979241;28;21533;-55
2022/06/19 06:22:44;;;;;;;11.63;2.30;;;;;;;;;;4980341;28;20234;-56
2022/06/19 06:25:11;;;;;;;7.55;2.70;;;;;;;;;;4983121;28;20647;-56
2022/06/19 06:27:37;;;;;;;6.72;2.50;;;;;;;;;;4986234;28;20237;-56
2022/06/19 06:30:03;;;;;;;8.35;2.60;;;;;;;;;;4978644;28;20648;-56
2022/06/19 06:32:29;;;;;;;8.05;2.80;;;;;;;;;;4978746;28;20297;-56
2022/06/19 06:34:55;;;;;;;6.32;2.70;;;;;;;;;;4983929;28;20811;-55
2022/06/19 06:37:21;;;;;;;8.93;3.25;;;;;;;;;;4974246;28;20577;-55
2022/06/19 06:39:47;;;;;;;8.95;2.88;;;;;;;;;;4978581;28;20181;-56
2022/06/19 06:42:13;;;;;;;11.02;3.25;;;;;;;;;;4974479;28;20674;-56
2022/06/19 06:44:39;;;;;;;8.75;3.28;;;;;;;;;;4977647;28;20198;-57
2022/06/19 06:47:05;;;;;;;8.05;3.28;;;;;;;;;;4986645;28;20185;-57
2022/06/19 06:49:31;;;;;;;7.00;3.40;;;;;;;;;;4984157;28;20201;-58
2022/06/19 06:51:57;;;;;;;7.95;3.63;;;;;;;;;;4986582;28;20214;-57
2022/06/19 06:54:23;;;;;;;7.22;3.50;;;;;;;;;;4979526;28;20264;-56
2022/06/19 06:56:49;;;;;;;10.60;3.78;;;;;;;;;;4978196;28;20244;-58
2022/06/19 06:59:15;;;;;;;6.43;3.13;;;;;;;;;;4979132;28;20217;-55
2022/06/19 07:01:41;;;;;;;10.07;3.88;;;;;;;;;;4974579;28;20924;-55
2022/06/19 07:04:07;;;;;;;6.45;3.72;;;;;;;;;;4977311;28;20256;-55
2022/06/19 07:06:33;;;;;;;8.88;3.70;;;;;;;;;;4977135;28;20679;-57
2022/06/19 07:08:59;;;;;;;8.57;4.07;;;;;;;;;;4980908;28;20459;-58
2022/06/19 07:11:33;;;;;;;10.63;3.60;;;;;;;;;;4975557;28;20253;-56
2022/06/19 07:13:58;;;;;;;7.37;3.60;;;;;;;;;;4981546;28;20548;-57
2022/06/19 07:16:24;;;;;;;9.63;3.27;;;;;;;;;;4976348;28;20278;-57
2022/06/19 07:18:52;;;;;;;10.57;3.60;;;;;;;;;;4984451;28;20182;-58
2022/06/19 07:21:18;;;;;;;10.00;3.20;;;;;;;;;;4983406;28;20272;-55
2022/06/19 07:23:44;;;;;;;15.60;3.37;;;;;;;;;;4978171;28;20197;-55
2022/06/19 07:26:14;;;;;;;9.67;3.67;;;;;;;;;;4985529;28;21117;-58
2022/06/19 07:28:40;;;;;;;16.57;4.20;;;;;;;;;;4981097;28;20221;-57
2022/06/19 07:31:06;;;;;;;12.00;3.77;;;;;;;;;;4977099;28;20248;-58
2022/06/19 07:33:33;;;;;;;7.97;3.83;;;;;;;;;;4981861;28;20178;-58
2022/06/19 07:35:58;;;;;;;14.03;3.60;;;;;;;;;;4987340;28;20190;-57
2022/06/19 07:38:24;;;;;;;16.20;4.13;;;;;;;;;;4979717;28;20190;-58
2022/06/19 07:40:50;;;;;;;11.43;4.33;;;;;;;;;;4984999;28;22289;-55
2022/06/19 07:43:16;;;;;;;10.70;4.03;;;;;;;;;;4971991;28;20329;-59
2022/06/19 07:45:42;;;;;;;14.10;4.20;;;;;;;;;;4975498;28;20194;-55
2022/06/19 07:50:54;;;;;;;8.87;3.37;;;;;;;;;;4984989;28;20217;-57
2022/06/19 07:53:20;;;;;;;6.23;3.50;;;;;;;;;;4984605;28;20189;-57
2022/06/19 07:55:46;;;;;;;11.13;3.70;;;;;;;;;;4977349;28;20709;-58
2022/06/19 07:58:12;;;;;;;10.73;3.10;;;;;;;;;;4969633;28;20193;-56
2022/06/19 08:00:38;;;;;;;9.30;3.17;;;;;;;;;;4967205;28;20186;-57
2022/06/19 08:03:04;;;;;;;12.30;3.67;;;;;;;;;;4980049;28;20313;-57
2022/06/19 08:05:31;;;;;;;6.53;2.70;;;;;;;;;;4964794;28;21195;-57
2022/06/19 08:08:00;;;;;;;9.63;2.90;;;;;;;;;;4972923;28;20186;-57
2022/06/19 08:10:26;;;;;;;7.07;2.63;;;;;;;;;;4985272;28;20214;-59
2022/06/19 08:12:52;;;;;;;10.33;3.30;;;;;;;;;;4987499;28;20541;-59
2022/06/19 08:15:18;;;;;;;12.63;2.90;;;;;;;;;;4976385;28;20686;-57
2022/06/19 08:17:44;;;;;;;8.87;2.80;;;;;;;;;;4986628;28;20644;-56
2022/06/19 08:20:11;;;;;;;8.77;2.90;;;;;;;;;;4985781;28;20186;-57
2022/06/19 08:22:38;;;;;;;11.40;3.90;;;;;;;;;;4983207;28;20775;-57
2022/06/19 08:25:04;;;;;;;6.13;2.63;;;;;;;;;;4991577;28;20189;-56
2022/06/19 08:27:30;;;;;;;8.07;2.97;;;;;;;;;;4989602;28;20212;-56
2022/06/19 08:29:56;;;;;;;10.47;3.47;;;;;;;;;;4980662;28;20198;-57
2022/06/19 08:32:22;;;;;;;7.47;3.03;;;;;;;;;;4987034;28;20221;-56
2022/06/19 08:34:48;;;;;;;8.63;2.67;;;;;;;;;;4981875;28;20191;-56
2022/06/19 08:37:14;;;;;;;7.67;2.87;;;;;;;;;;4991669;28;20277;-56
2022/06/19 08:39:40;;;;;;;10.60;2.93;;;;;;;;;;4988521;28;20182;-56
2022/06/19 08:42:13;;;;;;;11.40;3.33;;;;;;;;;;4988782;28;20194;-58
2022/06/19 08:44:51;;;;;;;16.47;3.80;;;;;;;;;;4986514;28;20197;-56
2022/06/19 08:47:36;;;;;;;6.43;2.90;;;;;;;;;;4982974;28;20205;-55
2022/06/19 08:50:11;;;;;;;10.23;3.23;;;;;;;;;;4983338;28;20222;-56
2022/06/19 08:52:43;;;;;;;8.67;2.83;;;;;;;;;;4986805;28;20190;-57
2022/06/19 08:55:29;;;;;;;7.77;3.37;;;;;;;;;;4992021;28;20212;-56
2022/06/19 08:58:08;;;;;;;9.48;2.85;;;;;;;;;;4978339;28;20348;-57
2022/06/19 09:00:51;;;;;;;6.80;2.90;;;;;;;;;;4977780;28;20209;-56
2022/06/19 09:03:20;;;;;;;9.33;3.10;;;;;;;;;;4964921;28;20216;-57
2022/06/19 09:06:06;;;;;;;9.47;3.20;;;;;;;;;;4985344;28;20193;-57
2022/06/19 09:08:32;;;;;;;6.65;3.00;;;;;;;;;;4991466;28;20788;-57
2022/06/19 09:11:07;;;;;;;10.00;3.38;;;;;;;;;;4982409;28;20210;-57
2022/06/19 09:13:33;;;;;;;9.60;3.50;;;;;;;;;;4981301;28;20189;-57
2022/06/19 09:16:12;;;;;;;10.75;3.17;;;;;;;;;;4985369;28;20657;-57
2022/06/19 09:18:56;;;;;;;7.05;3.25;;;;;;;;;;4985862;28;20217;-57
2022/06/19 09:21:41;;;;;;;8.65;3.58;;;;;;;;;;4984687;28;20794;-56
2022/06/19 09:24:09;;;;;;;8.15;3.17;;;;;;;;;;4983655;28;20908;-56
2022/06/19 09:26:38;;;;;;;11.07;3.25;;;;;;;;;;4974974;28;20201;-58
2022/06/19 09:29:13;;;;;;;7.72;3.10;;;;;;;;;;4983178;28;20290;-57
2022/06/19 09:31:42;;;;;;;5.35;2.70;;;;;;;;;;4985750;28;20213;-57
2022/06/19 09:34:11;;;;;;;6.65;2.90;;;;;;;;;;4983500;28;20201;-56
2022/06/19 09:36:39;;;;;;;12.15;3.13;;;;;;;;;;4984158;28;20744;-56
2022/06/19 09:39:24;;;;;;;6.50;3.10;;;;;;;;;;4984242;28;20182;-57
2022/06/19 09:41:53;;;;;;;8.55;3.58;;;;;;;;;;4975966;28;20746;-57
2022/06/19 09:44:25;;;;;;;6.97;3.00;;;;;;;;;;4976355;28;20189;-57
2022/06/19 09:46:54;;;;;;;7.53;3.50;;;;;;;;;;4978900;28;20453;-57
2022/06/19 09:49:21;;;;;;;7.20;3.35;;;;;;;;;;4982856;28;20272;-56
2022/06/19 09:52:07;;;;;;;9.02;3.22;;;;;;;;;;4975144;28;20210;-57
2022/06/19 09:54:35;;;;;;;6.35;3.22;;;;;;;;;;4974039;28;20220;-56
2022/06/19 09:57:01;;;;;;;10.20;3.33;;;;;;;;;;4977319;28;20193;-56
2022/06/19 09:59:29;;;;;;;8.43;3.45;;;;;;;;;;4980611;28;20190;-58
2022/06/19 10:01:56;;;;;;;5.53;3.05;;;;;;;;;;4978029;28;20229;-55
2022/06/19 10:04:35;;;;;;;31.50;5.88;;;;;;;;;;4990048;28;20193;-58
2022/06/19 10:07:02;;;;;;;12.38;3.85;;;;;;;;;;4978901;28;20219;-56
2022/06/19 10:09:29;;;;;;;31.58;4.57;;;;;;;;;;4986652;28;20208;-56
2022/06/19 10:11:56;;;;;;;12.48;3.85;;;;;;;;;;4988018;28;20206;-56
2022/06/19 10:14:27;;;;;;;24.45;4.50;;;;;;;;;;4967831;28;20533;-55
2022/06/19 10:16:58;;;;;;;15.73;3.50;;;;;;;;;;4986975;28;20190;-57
2022/06/19 10:19:25;;;;;;;12.40;3.45;;;;;;;;;;4963741;28;20240;-57
2022/06/19 10:22:13;;;;;;;10.15;3.03;;;;;;;;;;4978712;28;20230;-56
2022/06/19 10:24:43;;;;;;;11.63;3.33;;;;;;;;;;4980763;28;20196;-57
2022/06/19 10:27:09;;;;;;;7.40;3.38;;;;;;;;;;4974795;28;20194;-57
2022/06/19 10:29:48;;;;;;;9.85;2.90;;;;;;;;;;4973699;28;20274;-55
2022/06/19 10:32:17;;;;;;;10.02;3.08;;;;;;;;;;4977904;28;20209;-55
2022/06/19 10:35:02;;;;;;;14.50;3.70;;;;;;;;;;4981383;28;20178;-56
2022/06/19 10:37:31;;;;;;;8.00;3.05;;;;;;;;;;4986363;28;20194;-57
2022/06/19 10:40:00;;;;;;;11.65;3.35;;;;;;;;;;4974035;28;20273;-56
2022/06/19 10:42:29;;;;;;;8.60;3.03;;;;;;;;;;4986233;28;20201;-57
2022/06/19 10:45:14;;;;;;;8.25;3.03;;;;;;;;;;4978025;28;20537;-58
2022/06/19 10:47:49;;;;;;;11.68;4.18;;;;;;;;;;4967423;28;20269;-58
2022/06/19 10:50:34;;;;;;;10.20;3.80;;;;;;;;;;4977574;28;20207;-58
2022/06/19 10:53:19;;;;;;;8.82;3.90;;;;;;;;;;4973772;28;20196;-58
2022/06/19 10:55:47;;;;;;;8.18;3.50;;;;;;;;;;4973406;28;25333;-57
2022/06/19 10:58:16;;;;;;;10.80;4.15;;;;;;;;;;4983577;28;20278;-57
2022/06/19 11:00:42;;;;;;;9.98;4.00;;;;;;;;;;4979435;28;20174;-57
2022/06/19 11:06:06;;;;;;;12.10;4.25;;;;;;;;;;4979106;28;20748;-57
2022/06/19 11:08:35;;;;;;;12.70;4.18;;;;;;;;;;4978570;28;20276;-59
2022/06/19 11:11:01;;;;;;;9.43;3.30;;;;;;;;;;4977315;28;20220;-58
2022/06/19 11:13:47;;;;;;;8.27;3.72;;;;;;;;;;4980797;28;20182;-57
2022/06/19 11:16:13;;;;;;;7.75;3.65;;;;;;;;;;4981094;28;20190;-58
2022/06/19 11:18:46;;;;;;;7.82;3.85;;;;;;;;;;4982151;28;20194;-59
2022/06/19 11:21:13;;;;;;;9.80;3.83;;;;;;;;;;4978722;28;20186;-59
2022/06/19 11:23:49;;;;;;;10.45;3.63;;;;;;;;;;4987374;28;20202;-59
2022/06/19 11:26:15;;;;;;;11.55;4.35;;;;;;;;;;4988880;28;20181;-57
2022/06/19 11:28:42;;;;;;;10.13;4.00;;;;;;;;;;4983162;28;20528;-58
2022/06/19 11:31:10;;;;;;;10.98;4.53;;;;;;;;;;4976764;28;20232;-57
2022/06/19 11:33:36;;;;;;;12.57;3.95;;;;;;;;;;4981825;28;20182;-60
2022/06/19 11:36:04;;;;;;;8.05;3.95;;;;;;;;;;4984879;28;20667;-60
2022/06/19 11:38:33;;;;;;;10.27;4.22;;;;;;;;;;4987448;28;20615;-59
2022/06/19 11:40:59;;;;;;;9.63;4.40;;;;;;;;;;4981903;28;20800;-59
2022/06/19 11:43:27;;;;;;;10.68;4.10;;;;;;;;;;4980324;28;20213;-59
2022/06/19 11:46:01;;;;;;;11.75;3.90;;;;;;;;;;4979818;28;20188;-60
2022/06/19 11:48:27;;;;;;;9.25;4.20;;;;;;;;;;4967466;28;20196;-60
2022/06/19 11:50:53;;;;;;;9.38;4.63;;;;;;;;;;4985865;28;21211;-58
2022/06/19 11:53:22;;;;;;;10.02;3.90;;;;;;;;;;4983271;28;20903;-59
2022/06/19 11:55:49;;;;;;;11.43;4.03;;;;;;;;;;4975275;28;20182;-59
2022/06/19 11:58:44;;;;;;;9.80;4.15;;;;;;;;;;4979764;28;20715;-59
2022/06/19 12:01:14;;;;;;;11.63;4.00;;;;;;;;;;4966802;28;20204;-59
2022/06/19 12:03:50;;;;;;;13.52;4.90;;;;;;;;;;4984388;28;20194;-59
2022/06/19 12:06:17;;;;;;;10.57;3.83;;;;;;;;;;4984003;28;20189;-59
2022/06/19 12:09:03;;;;;;;8.38;3.30;;;;;;;;;;4988734;28;20682;-59
2022/06/19 12:11:43;;;;;;;7.72;3.00;;;;;;;;;;4983279;28;20558;-59
2022/06/19 12:14:10;;;;;;;8.48;3.42;;;;;;;;;;4976035;28;20519;-59
2022/06/19 12:16:36;;;;;;;5.97;3.00;;;;;;;;;;4983281;28;20192;-59
2022/06/19 12:19:21;;;;;;;9.02;3.28;;;;;;;;;;4983551;28;20236;-59
2022/06/19 12:21:48;;;;;;;7.80;3.40;;;;;;;;;;4976367;28;20686;-59
2022/06/19 12:24:16;;;;;;;13.70;3.70;;;;;;;;;;4988201;28;20213;-59
2022/06/19 12:26:45;;;;;;;10.85;3.92;;;;;;;;;;4972633;28;20630;-59
2022/06/19 12:29:23;;;;;;;8.00;3.20;;;;;;;;;;4983518;28;20221;-59
2022/06/19 12:31:49;;;;;;;8.77;3.58;;;;;;;;;;4980341;28;20235;-59
2022/06/19 12:34:27;;;;;;;11.52;3.90;;;;;;;;;;4981267;28;20198;-58
2022/06/19 12:36:59;;;;;;;9.25;3.50;;;;;;;;;;4980483;28;20186;-59
2022/06/19 12:39:26;;;;;;;10.88;3.85;;;;;;;;;;4980586;28;20188;-59
2022/06/19 12:41:58;;;;;;;8.30;3.40;;;;;;;;;;4980233;28;20185;-59
2022/06/19 12:44:27;;;;;;;9.35;3.67;;;;;;;;;;4980477;28;20313;-57
2022/06/19 12:46:56;;;;;;;8.43;3.72;;;;;;;;;;4970004;28;20186;-60
2022/06/19 12:49:25;;;;;;;13.35;3.50;;;;;;;;;;4971874;28;20291;-59
2022/06/19 12:51:52;;;;;;;9.15;3.60;;;;;;;;;;4986232;28;20582;-60
2022/06/19 12:54:29;;;;;;;10.50;3.90;;;;;;;;;;4981420;28;20966;-60
2022/06/19 12:57:14;;;;;;;8.32;3.72;;;;;;;;;;4988957;28;20710;-59
2022/06/19 13:00:01;;;;;;;10.98;3.60;;;;;;;;;;4983992;28;20194;-59
2022/06/19 13:02:27;;;;;;;6.70;3.65;;;;;;;;;;4987310;28;20190;-58
2022/06/19 13:05:25;;;;;;;8.88;3.75;;;;;;;;;;4982034;28;20189;-59
2022/06/19 13:07:51;;;;;;;8.48;3.58;;;;;;;;;;4944519;28;20205;-59
2022/06/19 13:10:23;;;;;;;9.82;3.78;;;;;;;;;;4983795;28;20256;-60
2022/06/19 13:12:48;;;;;;;9.73;3.70;;;;;;;;;;4988397;28;20310;-59
2022/06/19 13:15:20;;;;;;;8.43;3.65;;;;;;;;;;4978003;28;20298;-60
2022/06/19 13:18:05;;;;;;;7.85;4.15;;;;;;;;;;4982923;28;20663;-60
2022/06/19 13:20:34;;;;;;;9.02;3.63;;;;;;;;;;4973607;28;20269;-60
2022/06/19 13:23:02;;;;;;;11.10;3.75;;;;;;;;;;4985270;28;20279;-59
2022/06/19 13:25:40;;;;;;;8.18;3.90;;;;;;;;;;4980794;28;20533;-60
2022/06/19 13:28:13;;;;;;;8.43;4.18;;;;;;;;;;4981568;28;20440;-59
2022/06/19 13:30:48;;;;;;;8.75;4.00;;;;;;;;;;4982510;28;20672;-61
2022/06/19 13:33:29;;;;;;;10.35;3.80;;;;;;;;;;4977953;28;20725;-60
2022/06/19 13:36:01;;;;;;;9.27;3.78;;;;;;;;;;4979046;28;20560;-58
2022/06/19 13:38:39;;;;;;;10.23;4.03;;;;;;;;;;4983040;28;20194;-58
2022/06/19 13:41:10;;;;;;;13.48;4.07;;;;;;;;;;4980594;28;20215;-58
2022/06/19 13:43:52;;;;;;;10.57;4.35;;;;;;;;;;5075958;27;20312;-58
2022/06/19 13:46:24;;;;;;;11.23;4.32;;;;;;;;;;5051935;28;20191;-60
2022/06/19 13:48:50;;;;;;;12.88;4.05;;;;;;;;;;5059333;28;20187;-60
2022/06/19 13:51:19;;;;;;;9.98;4.15;;;;;;;;;;5056334;28;20168;-57
2022/06/19 13:53:54;;;;;;;8.77;4.32;;;;;;;;;;5059550;28;20664;-58
2022/06/19 13:56:25;;;;;;;9.77;4.00;;;;;;;;;;5063106;28;20535;-60
2022/06/19 13:59:17;;;;;;;9.68;4.07;;;;;;;;;;5059829;28;20661;-57
2022/06/19 14:01:46;;;;;;;11.23;4.95;;;;;;;;;;5032234;28;20653;-59
2022/06/19 14:04:45;;;;;;;10.38;3.80;;;;;;;;;;5059105;28;20175;-59
2022/06/19 14:07:13;;;;;;;11.80;4.78;;;;;;;;;;5060704;28;20236;-58
2022/06/19 14:09:57;;;;;;;6.22;3.75;;;;;;;;;;5057528;28;20269;-59
2022/06/19 14:12:37;;;;;;;9.40;4.13;;;;;;;;;;5056113;28;20201;-58
2022/06/19 14:15:07;;;;;;;8.00;3.78;;;;;;;;;;5055667;28;20179;-58
2022/06/19 14:17:40;;;;;;;11.65;4.00;;;;;;;;;;5059057;28;20406;-58
2022/06/19 14:20:06;;;;;;;9.02;4.03;;;;;;;;;;5045209;28;20198;-58
2022/06/19 14:22:51;;;;;;;8.38;3.05;;;;;;;;;;5048762;28;20211;-58
2022/06/19 14:25:23;;;;;;;6.80;3.20;;;;;;;;;;5046575;28;20210;-58
2022/06/19 14:28:08;;;;;;;8.32;3.17;;;;;;;;;;5048144;28;20214;-58
2022/06/19 14:30:36;;;;;;;10.80;3.80;;;;;;;;;;5028923;28;20180;-58
2022/06/19 14:33:02;;;;;;;9.20;3.42;;;;;;;;;;5039014;28;20282;-59
2022/06/19 14:35:30;;;;;;;6.20;3.08;;;;;;;;;;5042144;28;20188;-58
2022/06/19 14:38:11;;;;;;;8.93;3.22;;;;;;;;;;5021612;28;20199;-60
2022/06/19 14:40:41;;;;;;;7.50;3.40;;;;;;;;;;5029039;28;20188;-58
2022/06/19 14:43:10;;;;;;;7.65;3.10;;;;;;;;;;5032514;28;20231;-58
2022/06/19 14:45:40;;;;;;;7.20;2.90;;;;;;;;;;5029981;28;20665;-60
2022/06/19 14:48:24;;;;;;;10.38;3.10;;;;;;;;;;5041959;28;20274;-59
2022/06/19 14:50:57;;;;;;;5.70;2.90;;;;;;;;;;5037983;28;20629;-59
2022/06/19 14:53:41;;;;;;;5.82;2.90;;;;;;;;;;5038937;28;20185;-59
2022/06/19 14:56:34;;;;;;;5.82;2.72;;;;;;;;;;5024839;28;21163;-59